Time;durP1;ratioP1;P1;durP2;ratioP2;P2;SDS_P1;SDS_P2;PMS_P1;PMS_P2;Temp;Humidity;BMP_temperature;BMP_pressure;BME280_temperature;BME280_humidity;BME280_pressure;Samples;Min_cycle;Max_cycle;Signal;HPM_P1;HPM_P2
2023/10/01 00:01:36;;;;;;;3.92;3.58;;;18.00;99.90;;;;;;5039887;28;20207;-72
2023/10/01 00:04:04;;;;;;;3.72;3.35;;;17.90;99.90;;;;;;5032803;28;20272;-73
2023/10/01 00:06:31;;;;;;;3.55;3.25;;;17.90;99.90;;;;;;5035292;28;20228;-71
2023/10/01 00:08:59;;;;;;;2.97;2.78;;;17.90;99.90;;;;;;5044763;28;20840;-72
2023/10/01 00:11:27;;;;;;;3.47;3.17;;;17.90;99.90;;;;;;5038028;28;20288;-72
2023/10/01 00:13:54;;;;;;;3.75;3.45;;;17.90;99.90;;;;;;5042680;28;20248;-71
2023/10/01 00:16:21;;;;;;;3.45;3.15;;;17.90;99.90;;;;;;5033536;28;20821;-71
2023/10/01 00:18:48;;;;;;;3.17;2.97;;;17.80;99.90;;;;;;5035925;28;20250;-71
2023/10/01 00:21:15;;;;;;;3.38;3.00;;;17.80;99.90;;;;;;5039529;28;20298;-72
2023/10/01 00:23:43;;;;;;;3.40;3.10;;;17.80;99.90;;;;;;5038148;28;20749;-72
2023/10/01 00:26:11;;;;;;;3.30;3.00;;;17.80;99.90;;;;;;5039905;28;20225;-71
2023/10/01 00:28:38;;;;;;;3.30;3.08;;;17.80;99.90;;;;;;5042262;28;20195;-71
2023/10/01 00:31:06;;;;;;;3.65;3.35;;;17.70;99.90;;;;;;5037257;28;20203;-73
2023/10/01 00:33:33;;;;;;;4.05;3.05;;;17.70;99.90;;;;;;5034570;28;20203;-71
2023/10/01 00:36:00;;;;;;;3.17;2.97;;;17.70;99.90;;;;;;5037074;28;20739;-71
2023/10/01 00:38:27;;;;;;;2.88;2.67;;;17.70;99.90;;;;;;5039869;28;20281;-73
2023/10/01 00:40:55;;;;;;;3.42;3.13;;;17.60;99.90;;;;;;5039845;28;20209;-72
2023/10/01 00:43:27;;;;;;;2.90;2.70;;;17.60;99.90;;;;;;5039285;28;20298;-71
2023/10/01 00:45:54;;;;;;;3.35;3.15;;;17.60;99.90;;;;;;5037825;28;20215;-71
2023/10/01 00:48:24;;;;;;;3.78;3.47;;;17.60;99.90;;;;;;5041782;28;20325;-72
2023/10/01 00:50:52;;;;;;;3.47;3.28;;;17.50;99.90;;;;;;5038963;28;20195;-72
2023/10/01 00:53:19;;;;;;;3.63;3.33;;;17.50;99.90;;;;;;5035052;28;20204;-71
2023/10/01 00:55:48;;;;;;;5.68;3.30;;;17.50;99.90;;;;;;5043477;28;20219;-72
2023/10/01 00:58:18;;;;;;;2.88;2.67;;;17.50;99.90;;;;;;5040282;28;20196;-71
2023/10/01 01:00:49;;;;;;;3.38;3.08;;;17.40;99.90;;;;;;5032794;28;20207;-72
2023/10/01 01:03:21;;;;;;;3.20;2.90;;;17.40;99.90;;;;;;5036593;28;20742;-71
2023/10/01 01:06:12;;;;;;;3.28;3.08;;;17.40;99.90;;;;;;5040476;28;20222;-72
2023/10/01 01:08:47;;;;;;;3.35;3.05;;;17.40;99.90;;;;;;5032198;28;20712;-72
2023/10/01 01:11:16;;;;;;;3.50;3.20;;;17.30;99.90;;;;;;5040404;28;20828;-72
2023/10/01 01:13:44;;;;;;;3.85;3.55;;;17.30;99.90;;;;;;5039644;28;20696;-72
2023/10/01 01:16:19;;;;;;;3.75;3.45;;;17.30;99.90;;;;;;5037850;28;20231;-71
2023/10/01 01:18:47;;;;;;;3.28;3.03;;;17.30;99.90;;;;;;5037352;28;20214;-74
2023/10/01 01:21:14;;;;;;;3.20;2.90;;;17.30;99.90;;;;;;5035258;28;20249;-71
2023/10/01 01:23:45;;;;;;;3.83;3.50;;;17.20;99.90;;;;;;5036249;28;20202;-72
2023/10/01 01:26:13;;;;;;;3.92;3.63;;;17.20;99.90;;;;;;5038277;28;20220;-71
2023/10/01 01:28:41;;;;;;;3.80;3.50;;;17.10;99.90;;;;;;5037312;28;20210;-72
2023/10/01 01:31:10;;;;;;;4.72;3.65;;;17.10;99.90;;;;;;5037835;28;20234;-71
2023/10/01 01:33:52;;;;;;;3.55;3.25;;;17.10;99.90;;;;;;5039459;28;20546;-71
2023/10/01 01:36:20;;;;;;;3.42;3.22;;;17.10;99.90;;;;;;5037658;28;20223;-72
2023/10/01 01:39:12;;;;;;;3.40;3.10;;;17.00;99.90;;;;;;5039027;28;20215;-74
2023/10/01 01:41:42;;;;;;;3.75;3.38;;;16.90;99.90;;;;;;5034393;28;20200;-72
2023/10/01 01:44:13;;;;;;;3.70;3.40;;;16.90;99.90;;;;;;5029784;28;20676;-71
2023/10/01 01:46:47;;;;;;;3.67;3.38;;;16.90;99.90;;;;;;5038596;28;20215;-72
2023/10/01 01:49:17;;;;;;;3.55;3.25;;;16.80;99.90;;;;;;5031190;28;20742;-71
2023/10/01 01:51:56;;;;;;;3.60;3.17;;;16.80;99.90;;;;;;5035062;28;20195;-71
2023/10/01 01:54:27;;;;;;;4.15;3.85;;;16.80;99.90;;;;;;5033589;28;20290;-71
2023/10/01 01:56:55;;;;;;;3.70;3.40;;;16.80;99.90;;;;;;5038977;28;20214;-71
2023/10/01 01:59:27;;;;;;;3.80;3.42;;;16.80;99.90;;;;;;5040026;28;20212;-71
2023/10/01 02:01:55;;;;;;;3.47;3.22;;;16.70;99.90;;;;;;5035676;28;20204;-72
2023/10/01 02:04:22;;;;;;;3.30;3.10;;;16.70;99.90;;;;;;5036130;28;20290;-71
2023/10/01 02:06:52;;;;;;;3.20;2.90;;;16.70;99.90;;;;;;5033739;28;20592;-71
2023/10/01 02:09:24;;;;;;;3.60;3.30;;;16.60;99.90;;;;;;5039900;28;20198;-71
2023/10/01 02:11:53;;;;;;;3.38;3.08;;;16.70;99.90;;;;;;5043946;28;20286;-71
2023/10/01 02:14:33;;;;;;;3.70;3.40;;;16.60;99.90;;;;;;5038201;28;20199;-71
2023/10/01 02:17:13;;;;;;;3.50;3.20;;;16.60;99.90;;;;;;5036316;28;20306;-71
2023/10/01 02:19:40;;;;;;;3.15;2.85;;;16.60;99.90;;;;;;5040404;28;20251;-74
2023/10/01 02:22:09;;;;;;;3.63;3.25;;;16.60;99.90;;;;;;5035813;28;20206;-72
2023/10/01 02:24:44;;;;;;;3.22;2.97;;;16.50;99.90;;;;;;5038165;28;20207;-72
2023/10/01 02:27:14;;;;;;;4.03;3.72;;;16.50;99.90;;;;;;5033911;28;20218;-71
2023/10/01 02:30:11;;;;;;;3.50;3.20;;;16.50;99.90;;;;;;5032304;28;20721;-73
2023/10/01 02:32:35;;;;;;;3.83;3.53;;;16.50;99.90;;;;;;5036606;28;20235;-71
2023/10/01 02:35:33;;;;;;;3.70;3.40;;;16.50;99.90;;;;;;5034148;28;20329;-70
2023/10/01 02:37:50;;;;;;;4.00;3.70;;;16.40;99.90;;;;;;5039859;28;20214;-72
2023/10/01 02:40:18;;;;;;;3.95;3.50;;;16.40;99.90;;;;;;5045470;28;20220;-75
2023/10/01 02:42:49;;;;;;;2.95;2.75;;;16.40;99.90;;;;;;5037414;28;20203;-72
2023/10/01 02:45:30;;;;;;;3.22;3.03;;;16.30;99.90;;;;;;5037718;28;20210;-72
2023/10/01 02:50:38;;;;;;;3.63;3.33;;;16.30;99.90;;;;;;5034932;28;20409;-72
2023/10/01 02:53:04;;;;;;;3.95;3.55;;;16.30;99.90;;;;;;5037780;28;20261;-70
2023/10/01 02:55:31;;;;;;;3.58;3.28;;;16.20;99.90;;;;;;5037028;28;20273;-71
2023/10/01 02:58:17;;;;;;;4.15;3.75;;;16.20;99.90;;;;;;5036542;28;20195;-71
2023/10/01 03:00:44;;;;;;;3.60;3.30;;;16.20;99.90;;;;;;5035046;28;20219;-71
2023/10/01 03:03:15;;;;;;;3.67;3.38;;;16.10;99.90;;;;;;5034184;28;20336;-71
2023/10/01 03:05:46;;;;;;;5.18;3.22;;;16.10;99.90;;;;;;5035936;28;20301;-73
2023/10/01 03:08:40;;;;;;;3.42;3.17;;;16.10;99.90;;;;;;5034545;28;20208;-72
2023/10/01 03:11:08;;;;;;;3.53;3.22;;;16.10;99.90;;;;;;5034957;28;20675;-70
2023/10/01 03:13:36;;;;;;;3.80;3.20;;;16.00;99.90;;;;;;5038579;28;20227;-72
2023/10/01 03:19:13;;;;;;;3.70;3.40;;;16.00;99.90;;;;;;4986853;28;20343;-72
2023/10/01 03:24:23;;;;;;;4.03;3.25;;;16.00;99.90;;;;;;5035786;28;20198;-71
2023/10/01 03:26:50;;;;;;;4.05;3.65;;;16.00;99.90;;;;;;5036425;28;20215;-71
2023/10/01 03:29:21;;;;;;;3.58;3.28;;;16.00;99.90;;;;;;5035579;28;20199;-71
2023/10/01 03:31:53;;;;;;;3.88;3.20;;;16.00;99.90;;;;;;5038143;28;20203;-71
2023/10/01 03:34:29;;;;;;;3.70;3.40;;;16.00;99.90;;;;;;5036491;28;20205;-71
2023/10/01 03:36:58;;;;;;;3.80;3.45;;;15.90;99.90;;;;;;5033384;28;20225;-71
2023/10/01 03:39:26;;;;;;;3.75;3.45;;;15.90;99.90;;;;;;5037221;28;20920;-71
2023/10/01 03:41:55;;;;;;;3.45;3.17;;;15.90;99.90;;;;;;5037076;28;20554;-71
2023/10/01 03:47:05;;;;;;;3.72;3.42;;;15.90;99.90;;;;;;5035514;28;20225;-71
2023/10/01 03:49:37;;;;;;;3.40;3.10;;;15.80;99.90;;;;;;5034520;28;20203;-72
2023/10/01 03:52:04;;;;;;;3.45;3.15;;;15.80;99.90;;;;;;5035681;28;20200;-71
2023/10/01 03:57:16;;;;;;;3.95;3.65;;;15.80;99.90;;;;;;5034203;28;20234;-72
2023/10/01 03:59:51;;;;;;;3.47;3.28;;;15.80;99.90;;;;;;5041413;28;20413;-71
2023/10/01 04:02:28;;;;;;;3.55;3.35;;;15.70;99.90;;;;;;5034258;28;20589;-71
2023/10/01 04:04:58;;;;;;;3.55;3.25;;;15.70;99.90;;;;;;5036807;28;20253;-72
2023/10/01 04:07:31;;;;;;;3.58;3.28;;;15.70;99.90;;;;;;5036268;28;20219;-72
2023/10/01 04:09:58;;;;;;;3.30;3.00;;;15.70;99.90;;;;;;5039951;28;20199;-71
2023/10/01 04:12:32;;;;;;;3.80;3.50;;;15.70;99.90;;;;;;5034809;28;20207;-72
2023/10/01 04:15:04;;;;;;;3.63;3.33;;;15.70;99.90;;;;;;5035804;28;20202;-72
2023/10/01 04:17:35;;;;;;;3.60;3.33;;;15.60;99.90;;;;;;5033440;28;20203;-71
2023/10/01 04:20:12;;;;;;;4.07;3.67;;;15.50;99.90;;;;;;5035688;28;20362;-71
2023/10/01 04:22:40;;;;;;;3.83;3.53;;;15.50;99.90;;;;;;5037306;28;20214;-72
2023/10/01 04:25:10;;;;;;;3.72;3.42;;;15.50;99.90;;;;;;5034061;28;20205;-71
2023/10/01 04:27:41;;;;;;;3.70;3.40;;;15.50;99.90;;;;;;5035954;28;20286;-71
2023/10/01 04:30:11;;;;;;;3.85;3.55;;;15.50;99.90;;;;;;5031598;28;20206;-72
2023/10/01 04:32:39;;;;;;;3.58;3.28;;;15.50;99.90;;;;;;5037347;28;20195;-72
2023/10/01 04:35:14;;;;;;;3.30;3.10;;;15.50;99.90;;;;;;5034482;28;20279;-71
2023/10/01 04:37:42;;;;;;;3.45;3.15;;;15.50;99.90;;;;;;5043509;28;20632;-71
2023/10/01 04:42:51;;;;;;;3.80;3.50;;;15.50;99.90;;;;;;5036624;28;20199;-72
2023/10/01 04:45:23;;;;;;;4.00;3.70;;;15.50;99.90;;;;;;5039738;28;20241;-71
2023/10/01 04:47:55;;;;;;;3.58;3.28;;;15.50;99.90;;;;;;5041479;28;20222;-71
2023/10/01 04:50:29;;;;;;;4.18;3.88;;;15.50;99.90;;;;;;5038702;28;20203;-71
2023/10/01 04:52:59;;;;;;;4.25;3.80;;;15.50;99.90;;;;;;5041876;28;20199;-71
2023/10/01 04:55:28;;;;;;;3.90;3.60;;;15.40;99.90;;;;;;5034774;28;20226;-72
2023/10/01 04:57:56;;;;;;;4.15;3.85;;;15.40;99.90;;;;;;5040563;28;20199;-71
2023/10/01 05:00:26;;;;;;;3.33;3.03;;;15.40;99.90;;;;;;5035143;28;20269;-72
2023/10/01 05:02:53;;;;;;;3.55;3.25;;;15.40;99.90;;;;;;5039690;28;20204;-71
2023/10/01 05:05:26;;;;;;;3.75;3.45;;;15.40;99.90;;;;;;5042107;28;20207;-71
2023/10/01 05:07:56;;;;;;;3.60;3.30;;;15.40;99.90;;;;;;5042758;28;20228;-70
2023/10/01 05:10:25;;;;;;;4.07;3.67;;;15.40;99.90;;;;;;5038830;28;20195;-71
2023/10/01 05:12:55;;;;;;;3.75;3.45;;;15.40;99.90;;;;;;5038051;28;20302;-71
2023/10/01 05:15:25;;;;;;;3.80;3.50;;;15.30;99.90;;;;;;5037524;28;20230;-72
2023/10/01 05:17:55;;;;;;;3.75;3.45;;;15.30;99.90;;;;;;5040817;28;20237;-71
2023/10/01 05:20:23;;;;;;;4.30;4.00;;;15.30;99.90;;;;;;5036614;28;20228;-72
2023/10/01 05:22:54;;;;;;;3.42;3.13;;;15.30;99.90;;;;;;5040105;28;20235;-71
2023/10/01 05:25:24;;;;;;;3.75;3.45;;;15.30;99.90;;;;;;5039735;28;20195;-71
2023/10/01 05:27:54;;;;;;;3.80;3.50;;;15.30;99.90;;;;;;5038930;28;20207;-71
2023/10/01 05:30:38;;;;;;;4.00;3.55;;;15.30;99.90;;;;;;5038894;28;20475;-71
2023/10/01 05:33:07;;;;;;;4.20;3.90;;;15.30;99.90;;;;;;5038227;28;20742;-72
2023/10/01 05:35:41;;;;;;;3.67;3.40;;;15.30;99.90;;;;;;5042286;28;20231;-71
2023/10/01 05:38:10;;;;;;;3.50;3.20;;;15.30;99.90;;;;;;5038143;28;20207;-73
2023/10/01 05:40:37;;;;;;;3.95;3.65;;;15.30;99.90;;;;;;5035955;28;20211;-71
2023/10/01 05:43:13;;;;;;;3.88;3.58;;;15.40;99.90;;;;;;5039534;28;20210;-72
2023/10/01 05:45:41;;;;;;;4.18;3.78;;;15.40;99.90;;;;;;5037165;28;20218;-72
2023/10/01 05:48:11;;;;;;;3.60;3.30;;;15.40;99.90;;;;;;5036418;28;20214;-71
2023/10/01 05:50:41;;;;;;;3.85;3.45;;;15.40;99.90;;;;;;5037003;28;20929;-71
2023/10/01 05:53:09;;;;;;;4.47;4.07;;;15.40;99.90;;;;;;5045841;28;20693;-71
2023/10/01 05:55:38;;;;;;;3.80;3.50;;;15.40;99.90;;;;;;5038219;28;20225;-72
2023/10/01 05:58:16;;;;;;;3.97;3.67;;;15.50;99.90;;;;;;5040041;28;20826;-71
2023/10/01 06:00:50;;;;;;;4.25;3.85;;;15.50;99.90;;;;;;5040454;28;20206;-71
2023/10/01 06:03:19;;;;;;;3.97;3.67;;;15.60;99.90;;;;;;5040748;28;20226;-71
2023/10/01 06:05:50;;;;;;;4.47;3.35;;;15.60;99.90;;;;;;5037064;28;20222;-72
2023/10/01 06:08:24;;;;;;;4.03;3.72;;;15.70;99.90;;;;;;5032801;28;20234;-73
2023/10/01 06:10:59;;;;;;;4.63;4.13;;;15.70;99.90;;;;;;5039902;28;20198;-71
2023/10/01 06:13:28;;;;;;;4.35;4.05;;;15.80;99.90;;;;;;5036358;28;20203;-71
2023/10/01 06:15:56;;;;;;;3.88;3.47;;;16.10;99.90;;;;;;5040489;28;20242;-71
2023/10/01 06:18:24;;;;;;;4.20;3.80;;;16.40;99.90;;;;;;5038540;28;20679;-72
2023/10/01 06:20:53;;;;;;;4.32;4.03;;;16.70;99.90;;;;;;5035745;28;20749;-71
2023/10/01 06:23:20;;;;;;;4.50;4.10;;;17.10;99.90;;;;;;5038347;28;20195;-72
2023/10/01 06:25:53;;;;;;;4.32;3.92;;;17.50;99.90;;;;;;5037307;28;20265;-71
2023/10/01 06:28:23;;;;;;;4.32;3.97;;;17.80;99.90;;;;;;5039967;28;20282;-72
2023/10/01 06:30:50;;;;;;;4.57;4.18;;;18.20;99.90;;;;;;5039834;28;20673;-71
2023/10/01 06:33:26;;;;;;;4.45;4.05;;;18.40;99.90;;;;;;5033735;28;20813;-71
2023/10/01 06:38:44;;;;;;;4.30;3.95;;;19.00;99.90;;;;;;5030781;28;20207;-72
2023/10/01 06:41:16;;;;;;;5.55;3.90;;;19.30;99.90;;;;;;5035189;28;20306;-74
2023/10/01 06:43:49;;;;;;;3.97;3.67;;;19.60;99.90;;;;;;5035725;28;20688;-71
2023/10/01 06:46:22;;;;;;;4.57;4.13;;;19.70;99.90;;;;;;5036377;28;20223;-71
2023/10/01 06:48:50;;;;;;;4.22;3.90;;;19.90;99.90;;;;;;5037661;28;20217;-72
2023/10/01 06:51:21;;;;;;;4.85;4.45;;;20.00;99.90;;;;;;5036360;28;20657;-71
2023/10/01 06:53:53;;;;;;;4.72;4.32;;;20.20;99.90;;;;;;5038727;28;20231;-74
2023/10/01 06:56:21;;;;;;;4.45;4.05;;;20.30;99.90;;;;;;5037827;28;20244;-71
2023/10/01 07:01:46;;;;;;;4.55;4.15;;;20.40;99.90;;;;;;5094356;27;20705;-72
2023/10/01 07:04:17;;;;;;;4.70;4.30;;;20.50;99.90;;;;;;5079560;28;20193;-74
2023/10/01 07:06:45;;;;;;;4.57;3.80;;;20.70;99.90;;;;;;5083751;28;20668;-72
2023/10/01 07:09:27;;;;;;;4.80;4.00;;;20.70;99.90;;;;;;5085085;28;20217;-72
2023/10/01 07:11:56;;;;;;;4.72;4.32;;;20.70;99.90;;;;;;5082261;28;20201;-72
2023/10/01 07:14:30;;;;;;;5.70;4.00;;;20.80;99.90;;;;;;5083285;28;20458;-71
2023/10/01 07:17:01;;;;;;;5.53;4.35;;;20.90;99.90;;;;;;5080195;28;20283;-72
2023/10/01 07:19:29;;;;;;;4.07;3.70;;;20.90;99.90;;;;;;5079183;28;20220;-71
2023/10/01 07:22:06;;;;;;;5.43;4.47;;;21.00;99.90;;;;;;5080496;28;20255;-72
2023/10/01 07:24:33;;;;;;;4.82;4.38;;;21.20;99.90;;;;;;5082894;28;20208;-72
2023/10/01 07:27:05;;;;;;;4.47;4.07;;;21.40;99.90;;;;;;5086916;28;20229;-71
2023/10/01 07:29:34;;;;;;;4.70;4.18;;;21.50;99.90;;;;;;5081047;28;20218;-72
2023/10/01 07:32:04;;;;;;;4.28;3.90;;;21.70;99.90;;;;;;5083332;28;20300;-71
2023/10/01 07:34:32;;;;;;;4.95;4.45;;;21.80;99.90;;;;;;5079976;28;20201;-71
2023/10/01 07:37:00;;;;;;;5.57;4.20;;;21.80;99.90;;;;;;5082852;28;20288;-72
2023/10/01 07:39:34;;;;;;;4.70;4.20;;;21.90;99.90;;;;;;5080765;28;20257;-72
2023/10/01 07:42:04;;;;;;;5.43;4.18;;;21.90;99.90;;;;;;5104620;28;20186;-74
2023/10/01 07:44:31;;;;;;;5.28;3.92;;;22.10;99.90;;;;;;5106925;28;20251;-74
2023/10/01 07:46:59;;;;;;;5.05;4.65;;;22.30;99.90;;;;;;5091545;28;20198;-72
2023/10/01 07:49:44;;;;;;;4.72;4.20;;;22.50;99.90;;;;;;5079798;28;20224;-72
2023/10/01 07:52:17;;;;;;;4.72;4.32;;;22.70;99.90;;;;;;5079547;28;20661;-72
2023/10/01 07:54:47;;;;;;;4.63;4.13;;;22.80;99.90;;;;;;5086284;28;20202;-73
2023/10/01 07:57:15;;;;;;;5.03;4.50;;;22.80;99.90;;;;;;5082891;28;20215;-73
2023/10/01 07:59:46;;;;;;;5.82;4.68;;;22.80;99.90;;;;;;5082772;28;20297;-71
2023/10/01 08:02:21;;;;;;;4.70;4.20;;;22.80;99.90;;;;;;5081380;28;20481;-73
2023/10/01 08:04:58;;;;;;;4.60;4.20;;;22.90;99.90;;;;;;5075780;28;20258;-72
2023/10/01 08:07:31;;;;;;;5.47;4.32;;;23.00;99.90;;;;;;5081660;28;20197;-73
2023/10/01 08:10:03;;;;;;;5.30;4.60;;;23.30;99.90;;;;;;5081162;28;20322;-72
2023/10/01 08:12:33;;;;;;;4.82;4.32;;;23.50;99.90;;;;;;5072074;28;20664;-72
2023/10/01 08:15:32;;;;;;;4.97;4.00;;;23.70;99.90;;;;;;5066259;28;20202;-71
2023/10/01 08:18:19;;;;;;;5.10;4.60;;;23.70;99.90;;;;;;5063915;28;20639;-71
2023/10/01 08:20:58;;;;;;;5.38;4.38;;;23.70;99.90;;;;;;5070345;28;20210;-72
2023/10/01 08:23:26;;;;;;;5.05;4.55;;;23.70;99.90;;;;;;5066814;28;20197;-73
2023/10/01 08:25:55;;;;;;;5.70;4.45;;;23.70;99.90;;;;;;5080573;28;20198;-73
2023/10/01 08:28:29;;;;;;;5.25;4.68;;;23.60;99.90;;;;;;5078248;28;20228;-72
2023/10/01 08:31:20;;;;;;;4.72;4.32;;;23.50;99.90;;;;;;5070751;28;20285;-72
2023/10/01 08:33:51;;;;;;;4.53;4.07;;;23.60;99.90;;;;;;5071458;28;20204;-73
2023/10/01 08:36:24;;;;;;;6.35;4.38;;;23.90;99.90;;;;;;5068059;28;20316;-72
2023/10/01 08:41:47;;;;;;;4.95;4.10;;;24.00;99.90;;;;;;5070683;28;20633;-72
2023/10/01 08:44:30;;;;;;;5.18;4.22;;;24.00;99.90;;;;;;5066400;28;20209;-72
2023/10/01 08:47:21;;;;;;;4.80;4.10;;;24.30;99.90;;;;;;5063613;28;20642;-72
2023/10/01 08:49:50;;;;;;;5.25;4.05;;;24.50;99.90;;;;;;5069962;28;20242;-72
2023/10/01 08:52:25;;;;;;;4.32;3.83;;;24.70;99.90;;;;;;5062032;28;20234;-72
2023/10/01 08:54:53;;;;;;;7.45;4.40;;;24.90;99.90;;;;;;5070281;28;20225;-74
2023/10/01 08:57:36;;;;;;;5.45;4.95;;;25.10;99.90;;;;;;5066140;28;20198;-73
2023/10/01 09:00:14;;;;;;;4.55;3.95;;;25.20;99.90;;;;;;5064594;28;20576;-72
2023/10/01 09:02:41;;;;;;;6.97;5.03;;;25.10;99.90;;;;;;5065664;28;20277;-73
2023/10/01 09:05:11;;;;;;;5.13;4.45;;;25.20;99.90;;;;;;5065686;28;20198;-74
2023/10/01 09:07:47;;;;;;;5.30;4.60;;;25.10;99.90;;;;;;5068275;28;20228;-73
2023/10/01 09:10:17;;;;;;;4.55;4.05;;;24.90;99.90;;;;;;5065099;28;20280;-74
2023/10/01 09:12:46;;;;;;;4.38;3.95;;;25.10;99.90;;;;;;5067717;28;20225;-74
2023/10/01 09:15:27;;;;;;;5.30;4.45;;;25.30;99.90;;;;;;5067306;28;20206;-73
2023/10/01 09:18:00;;;;;;;5.32;4.30;;;25.50;99.90;;;;;;5068858;28;20237;-73
2023/10/01 09:20:42;;;;;;;4.85;4.00;;;25.50;99.90;;;;;;5070313;28;20312;-71
2023/10/01 09:23:10;;;;;;;4.65;4.18;;;25.50;99.90;;;;;;5065233;28;20305;-71
2023/10/01 09:25:41;;;;;;;4.47;4.07;;;25.60;99.90;;;;;;5061847;28;20202;-71
2023/10/01 09:28:29;;;;;;;7.00;4.40;;;25.70;99.90;;;;;;5064488;28;20214;-72
2023/10/01 09:31:02;;;;;;;4.90;4.15;;;25.60;99.90;;;;;;5065804;28;20203;-73
2023/10/01 09:33:29;;;;;;;7.15;4.32;;;25.50;99.90;;;;;;5063514;28;20194;-72
2023/10/01 09:36:00;;;;;;;4.55;3.95;;;25.50;99.90;;;;;;5069186;28;20290;-71
2023/10/01 09:38:28;;;;;;;4.55;4.13;;;25.50;99.90;;;;;;5069651;28;20245;-71
2023/10/01 09:40:56;;;;;;;4.65;4.13;;;25.50;99.90;;;;;;5064002;28;20271;-71
2023/10/01 09:43:27;;;;;;;5.30;4.32;;;25.30;99.90;;;;;;5069595;28;20255;-71
2023/10/01 09:45:57;;;;;;;6.05;4.55;;;25.40;99.90;;;;;;5065803;28;20565;-71
2023/10/01 09:48:33;;;;;;;4.90;4.20;;;25.40;99.90;;;;;;5063806;28;20226;-72
2023/10/01 09:51:14;;;;;;;4.82;4.25;;;25.40;99.90;;;;;;5067488;28;20677;-73
2023/10/01 09:53:51;;;;;;;4.50;3.63;;;25.50;99.90;;;;;;5069061;28;20301;-71
2023/10/01 09:56:27;;;;;;;5.60;4.20;;;25.70;99.90;;;;;;5072732;28;20338;-72
2023/10/01 09:58:58;;;;;;;5.15;4.47;;;26.00;99.90;;;;;;5066439;28;20310;-71
2023/10/01 10:01:27;;;;;;;4.60;3.80;;;26.10;99.90;;;;;;5068012;28;20293;-71
2023/10/01 10:03:59;;;;;;;4.70;4.20;;;26.00;99.90;;;;;;5067685;28;20206;-73
2023/10/01 10:06:26;;;;;;;4.60;4.13;;;26.20;99.90;;;;;;5064287;28;20255;-71
2023/10/01 10:09:04;;;;;;;5.53;4.70;;;26.40;99.90;;;;;;5068777;28;20226;-72
2023/10/01 10:11:36;;;;;;;4.80;4.05;;;26.80;99.90;;;;;;5068271;28;20293;-71
2023/10/01 10:14:25;;;;;;;4.82;4.32;;;27.00;99.90;;;;;;5061201;28;20198;-73
2023/10/01 10:16:57;;;;;;;4.95;4.45;;;27.00;99.90;;;;;;5062592;28;20213;-71
2023/10/01 10:19:24;;;;;;;4.90;4.28;;;26.90;99.90;;;;;;5063256;28;20313;-72
2023/10/01 10:22:16;;;;;;;4.68;4.10;;;26.80;99.90;;;;;;5067154;28;20271;-71
2023/10/01 10:24:54;;;;;;;7.63;4.63;;;26.80;99.90;;;;;;5070141;28;20204;-72
2023/10/01 10:27:47;;;;;;;5.25;4.75;;;26.60;99.90;;;;;;5079518;28;20204;-71
2023/10/01 10:30:21;;;;;;;5.25;4.30;;;26.40;99.90;;;;;;5075556;28;20210;-71
2023/10/01 10:33:38;;;;;;;5.28;4.28;;;26.30;99.90;;;;;;5064866;28;20197;-71
2023/10/01 10:36:49;;;;;;;4.70;4.18;;;26.50;99.90;;;;;;5063112;28;20194;-71
2023/10/01 10:43:18;;;;;;;6.28;4.85;;;26.20;99.90;;;;;;5064971;28;20233;-72
2023/10/01 10:46:08;;;;;;;5.03;4.47;;;26.20;99.90;;;;;;5058764;28;20202;-73
2023/10/01 10:49:03;;;;;;;5.18;4.68;;;26.10;99.90;;;;;;5064614;28;20215;-71
2023/10/01 10:51:52;;;;;;;5.95;4.55;;;26.20;99.90;;;;;;5065258;28;20194;-71
2023/10/01 10:54:29;;;;;;;5.32;4.53;;;26.20;99.90;;;;;;5062213;28;20201;-72
2023/10/01 10:56:58;;;;;;;6.18;5.15;;;26.30;99.90;;;;;;5065793;28;20259;-71
2023/10/01 10:59:29;;;;;;;6.97;4.50;;;26.30;99.90;;;;;;5064523;28;20245;-71
2023/10/01 11:01:58;;;;;;;4.90;4.32;;;26.50;99.90;;;;;;5062724;28;20264;-71
2023/10/01 11:04:32;;;;;;;5.80;4.50;;;26.90;99.90;;;;;;5059954;28;20664;-72
2023/10/01 11:07:02;;;;;;;7.25;5.13;;;27.00;99.90;;;;;;5067335;28;20250;-71
2023/10/01 11:09:31;;;;;;;5.85;5.22;;;27.00;99.90;;;;;;5065348;28;20218;-71
2023/10/01 11:12:07;;;;;;;5.32;4.82;;;26.70;99.90;;;;;;5066232;28;20206;-71
2023/10/01 11:14:36;;;;;;;7.38;4.55;;;26.50;99.90;;;;;;5063194;28;20492;-71
2023/10/01 11:17:06;;;;;;;4.70;4.18;;;26.70;99.90;;;;;;5068266;28;20202;-71
2023/10/01 11:19:36;;;;;;;5.13;4.55;;;26.90;99.90;;;;;;5065756;28;20218;-71
2023/10/01 11:22:05;;;;;;;6.13;4.88;;;26.70;99.90;;;;;;5083867;28;20224;-75
2023/10/01 11:24:33;;;;;;;6.38;4.70;;;26.70;99.90;;;;;;5091205;28;20272;-72
2023/10/01 11:27:22;;;;;;;6.53;5.38;;;26.70;99.90;;;;;;5095684;28;20611;-74
2023/10/01 11:30:15;;;;;;;5.53;4.88;;;26.80;99.90;;;;;;5063383;28;20190;-72
2023/10/01 11:33:01;;;;;;;5.55;4.93;;;26.80;99.90;;;;;;5066351;28;20199;-70
2023/10/01 11:35:32;;;;;;;5.78;4.78;;;27.10;99.90;;;;;;5066455;28;22031;-73
2023/10/01 11:38:03;;;;;;;6.45;4.97;;;27.30;99.90;;;;;;5072350;28;20281;-72
2023/10/01 11:41:06;;;;;;;5.72;5.10;;;27.30;99.90;;;;;;5066087;28;20213;-71
2023/10/01 11:43:27;;;;;;;6.55;5.38;;;27.40;99.90;;;;;;5069838;28;20718;-71
2023/10/01 11:46:21;;;;;;;5.57;4.90;;;27.40;99.90;;;;;;5064266;28;20197;-72
2023/10/01 11:48:59;;;;;;;5.68;5.07;;;27.20;99.90;;;;;;5071116;28;20249;-73
2023/10/01 11:51:31;;;;;;;6.95;5.82;;;27.00;99.90;;;;;;5071720;28;21241;-72
2023/10/01 11:54:09;;;;;;;6.38;5.00;;;27.00;99.90;;;;;;5073719;28;20285;-72
2023/10/01 11:56:38;;;;;;;5.45;4.93;;;27.20;99.90;;;;;;5066318;28;20255;-72
2023/10/01 11:59:08;;;;;;;5.63;4.50;;;27.20;99.90;;;;;;5065204;28;20304;-72
2023/10/01 12:01:45;;;;;;;5.82;4.82;;;27.10;99.90;;;;;;5069902;28;20252;-73
2023/10/01 12:04:16;;;;;;;7.25;5.05;;;27.10;99.90;;;;;;5067548;28;20739;-73
2023/10/01 12:06:43;;;;;;;7.18;5.50;;;27.10;99.90;;;;;;5069677;28;20203;-73
2023/10/01 12:09:10;;;;;;;7.07;5.50;;;27.10;99.90;;;;;;5066460;28;20917;-73
2023/10/01 12:11:38;;;;;;;6.93;5.32;;;27.10;99.90;;;;;;5075008;28;20574;-70
2023/10/01 12:14:08;;;;;;;6.80;5.35;;;27.20;99.90;;;;;;5068544;28;20289;-73
2023/10/01 12:16:39;;;;;;;7.75;5.20;;;27.10;99.90;;;;;;5068747;28;20200;-73
2023/10/01 12:19:22;;;;;;;7.68;5.25;;;27.10;99.90;;;;;;5072993;28;20222;-73
2023/10/01 12:22:05;;;;;;;6.78;5.72;;;27.00;99.90;;;;;;5068055;28;20319;-74
2023/10/01 12:24:39;;;;;;;9.05;6.50;;;26.70;99.90;;;;;;5067313;28;20962;-72
2023/10/01 12:27:07;;;;;;;7.82;5.22;;;26.70;99.90;;;;;;5069845;28;20197;-74
2023/10/01 12:29:43;;;;;;;8.60;5.45;;;26.80;99.90;;;;;;5086036;28;20222;-75
2023/10/01 12:32:14;;;;;;;8.95;5.93;;;26.70;99.90;;;;;;5060930;28;20204;-73
2023/10/01 12:34:42;;;;;;;6.57;5.50;;;26.80;99.90;;;;;;5066151;28;20253;-74
2023/10/01 12:37:35;;;;;;;8.00;5.88;;;26.90;99.90;;;;;;5066983;28;20259;-74
2023/10/01 12:42:39;;;;;;;7.70;5.65;;;27.00;99.90;;;;;;5063858;28;20267;-72
2023/10/01 12:45:14;;;;;;;9.57;5.93;;;26.90;99.90;;;;;;5065073;28;20285;-73
2023/10/01 12:47:50;;;;;;;8.07;5.85;;;26.80;99.90;;;;;;5069518;28;20746;-72
2023/10/01 12:50:26;;;;;;;7.57;6.00;;;26.70;99.90;;;;;;5060095;28;20201;-73
2023/10/01 12:53:19;;;;;;;7.10;5.75;;;26.80;99.90;;;;;;5068858;28;20741;-74
2023/10/01 12:55:51;;;;;;;6.72;5.68;;;26.90;99.90;;;;;;5067363;28;20675;-73
2023/10/01 12:58:29;;;;;;;8.27;5.75;;;27.10;99.90;;;;;;5064037;28;20221;-73
2023/10/01 13:00:57;;;;;;;7.97;6.10;;;27.20;99.90;;;;;;5067974;28;20198;-73
2023/10/01 13:03:29;;;;;;;7.57;5.97;;;27.30;99.90;;;;;;5062199;28;20679;-73
2023/10/01 13:05:55;;;;;;;7.97;5.70;;;27.30;99.90;;;;;;5062042;28;20198;-73
2023/10/01 13:08:31;;;;;;;8.10;6.38;;;27.30;99.90;;;;;;5065951;28;20907;-75
2023/10/01 13:10:57;;;;;;;7.10;6.30;;;27.30;99.90;;;;;;5068009;28;20289;-74
2023/10/01 13:13:30;;;;;;;7.60;6.32;;;27.40;99.90;;;;;;5066838;28;20244;-73
2023/10/01 13:15:58;;;;;;;7.20;5.80;;;27.30;99.90;;;;;;5062478;28;20263;-73
2023/10/01 13:18:29;;;;;;;7.43;5.72;;;27.30;99.90;;;;;;5064224;28;20217;-74
2023/10/01 13:21:06;;;;;;;7.45;5.78;;;27.30;99.90;;;;;;5065487;28;20201;-76
2023/10/01 13:23:41;;;;;;;6.85;5.57;;;27.30;99.90;;;;;;5067121;28;20210;-73
2023/10/01 13:26:19;;;;;;;7.53;5.72;;;27.20;99.90;;;;;;5064218;28;20210;-72
2023/10/01 13:28:50;;;;;;;8.07;5.80;;;27.10;99.90;;;;;;5070046;28;20271;-74
2023/10/01 13:31:40;;;;;;;9.32;5.70;;;27.00;99.90;;;;;;5066506;28;20599;-75
2023/10/01 13:34:21;;;;;;;6.40;5.43;;;27.10;99.90;;;;;;5062894;28;20799;-73
2023/10/01 13:37:11;;;;;;;9.25;5.60;;;27.10;99.90;;;;;;5062536;28;20283;-73
2023/10/01 13:40:10;;;;;;;7.53;5.93;;;27.20;99.90;;;;;;5061254;28;20217;-74
2023/10/01 14:10:20;;;;;;;6.72;5.10;;;26.40;99.90;;;;;;5062599;28;20319;-73
2023/10/01 14:12:56;;;;;;;6.80;5.60;;;26.40;99.90;;;;;;5061416;28;20199;-73
2023/10/01 14:15:25;;;;;;;5.50;4.68;;;26.40;99.90;;;;;;5060844;28;20617;-73
2023/10/01 14:17:56;;;;;;;6.88;5.53;;;26.50;99.90;;;;;;5066458;28;20306;-72